sensor_id;sensor_type;location;lat;lon;timestamp;P1;durP1;ratioP1;P2;durP2;ratioP2
9479;SDS011;4778;44.510;11.378;2023-03-03T00:00:46;27.02;;;19.77;;
9479;SDS011;4778;44.510;11.378;2023-03-03T00:03:14;28.43;;;20.03;;
9479;SDS011;4778;44.510;11.378;2023-03-03T00:05:41;25.33;;;19.13;;
9479;SDS011;4778;44.510;11.378;2023-03-03T00:08:07;26.92;;;19.30;;
9479;SDS011;4778;44.510;11.378;2023-03-03T00:10:34;25.65;;;18.80;;
9479;SDS011;4778;44.510;11.378;2023-03-03T00:13:00;25.40;;;18.48;;
9479;SDS011;4778;44.510;11.378;2023-03-03T00:15:26;26.53;;;19.50;;
9479;SDS011;4778;44.510;11.378;2023-03-03T00:17:53;27.02;;;19.48;;
9479;SDS011;4778;44.510;11.378;2023-03-03T00:20:45;26.38;;;19.10;;
9479;SDS011;4778;44.510;11.378;2023-03-03T00:25:51;27.55;;;20.13;;
9479;SDS011;4778;44.510;11.378;2023-03-03T00:30:47;27.35;;;20.25;;
9479;SDS011;4778;44.510;11.378;2023-03-03T00:35:52;25.65;;;19.10;;
9479;SDS011;4778;44.510;11.378;2023-03-03T00:38:19;26.63;;;19.27;;
9479;SDS011;4778;44.510;11.378;2023-03-03T00:40:45;27.05;;;19.38;;
9479;SDS011;4778;44.510;11.378;2023-03-03T00:43:22;26.85;;;19.83;;
9479;SDS011;4778;44.510;11.378;2023-03-03T00:45:49;27.30;;;18.90;;
9479;SDS011;4778;44.510;11.378;2023-03-03T00:48:29;26.60;;;19.63;;
9479;SDS011;4778;44.510;11.378;2023-03-03T00:50:56;26.65;;;19.75;;
9479;SDS011;4778;44.510;11.378;2023-03-03T00:53:24;26.02;;;18.42;;
9479;SDS011;4778;44.510;11.378;2023-03-03T00:55:51;24.70;;;18.30;;
9479;SDS011;4778;44.510;11.378;2023-03-03T00:58:17;27.08;;;18.75;;
9479;SDS011;4778;44.510;11.378;2023-03-03T01:00:46;24.90;;;18.52;;
9479;SDS011;4778;44.510;11.378;2023-03-03T01:03:13;25.65;;;19.08;;
9479;SDS011;4778;44.510;11.378;2023-03-03T01:05:39;26.17;;;18.83;;
9479;SDS011;4778;44.510;11.378;2023-03-03T01:08:05;26.75;;;18.65;;
9479;SDS011;4778;44.510;11.378;2023-03-03T01:10:34;26.00;;;18.33;;
9479;SDS011;4778;44.510;11.378;2023-03-03T01:13:01;26.35;;;19.58;;
9479;SDS011;4778;44.510;11.378;2023-03-03T01:15:27;26.67;;;19.10;;
9479;SDS011;4778;44.510;11.378;2023-03-03T01:17:53;25.95;;;19.38;;
9479;SDS011;4778;44.510;11.378;2023-03-03T01:20:20;26.05;;;19.60;;
9479;SDS011;4778;44.510;11.378;2023-03-03T01:22:46;26.40;;;18.80;;
9479;SDS011;4778;44.510;11.378;2023-03-03T01:25:12;25.53;;;19.60;;
9479;SDS011;4778;44.510;11.378;2023-03-03T01:27:38;27.02;;;19.25;;
9479;SDS011;4778;44.510;11.378;2023-03-03T01:30:05;29.33;;;19.73;;
9479;SDS011;4778;44.510;11.378;2023-03-03T01:32:31;26.15;;;18.30;;
9479;SDS011;4778;44.510;11.378;2023-03-03T01:34:58;26.80;;;19.00;;
9479;SDS011;4778;44.510;11.378;2023-03-03T01:37:24;28.10;;;18.77;;
9479;SDS011;4778;44.510;11.378;2023-03-03T01:39:53;27.80;;;18.08;;
9479;SDS011;4778;44.510;11.378;2023-03-03T01:42:19;27.00;;;18.90;;
9479;SDS011;4778;44.510;11.378;2023-03-03T01:44:46;24.33;;;17.75;;
9479;SDS011;4778;44.510;11.378;2023-03-03T01:47:16;25.73;;;18.65;;
9479;SDS011;4778;44.510;11.378;2023-03-03T01:49:46;25.98;;;18.70;;
9479;SDS011;4778;44.510;11.378;2023-03-03T01:52:33;23.73;;;18.33;;
9479;SDS011;4778;44.510;11.378;2023-03-03T01:55:02;24.23;;;17.88;;
9479;SDS011;4778;44.510;11.378;2023-03-03T01:57:30;27.10;;;18.48;;
9479;SDS011;4778;44.510;11.378;2023-03-03T01:59:57;23.58;;;17.60;;
9479;SDS011;4778;44.510;11.378;2023-03-03T02:02:25;26.27;;;18.33;;
9479;SDS011;4778;44.510;11.378;2023-03-03T02:04:52;23.40;;;17.67;;
9479;SDS011;4778;44.510;11.378;2023-03-03T02:07:19;24.17;;;17.85;;
9479;SDS011;4778;44.510;11.378;2023-03-03T02:12:16;27.67;;;18.57;;
9479;SDS011;4778;44.510;11.378;2023-03-03T02:14:42;25.58;;;18.35;;
9479;SDS011;4778;44.510;11.378;2023-03-03T02:17:09;23.83;;;18.17;;
9479;SDS011;4778;44.510;11.378;2023-03-03T02:19:46;24.85;;;18.10;;
9479;SDS011;4778;44.510;11.378;2023-03-03T02:22:16;23.73;;;17.55;;
9479;SDS011;4778;44.510;11.378;2023-03-03T02:25:02;26.00;;;18.70;;
9479;SDS011;4778;44.510;11.378;2023-03-03T02:27:30;27.73;;;18.02;;
9479;SDS011;4778;44.510;11.378;2023-03-03T02:29:56;25.17;;;17.97;;
9479;SDS011;4778;44.510;11.378;2023-03-03T02:32:23;23.65;;;17.50;;
9479;SDS011;4778;44.510;11.378;2023-03-03T02:34:50;24.67;;;17.73;;
9479;SDS011;4778;44.510;11.378;2023-03-03T02:37:16;22.63;;;17.03;;
9479;SDS011;4778;44.510;11.378;2023-03-03T02:39:43;24.88;;;18.23;;
9479;SDS011;4778;44.510;11.378;2023-03-03T02:42:17;27.70;;;18.27;;
9479;SDS011;4778;44.510;11.378;2023-03-03T02:44:45;26.05;;;18.83;;
9479;SDS011;4778;44.510;11.378;2023-03-03T02:47:11;24.70;;;18.10;;
9479;SDS011;4778;44.510;11.378;2023-03-03T02:49:37;25.58;;;18.20;;
9479;SDS011;4778;44.510;11.378;2023-03-03T02:52:04;24.17;;;17.65;;
9479;SDS011;4778;44.510;11.378;2023-03-03T02:54:31;25.88;;;18.83;;
9479;SDS011;4778;44.510;11.378;2023-03-03T02:56:57;22.92;;;17.45;;
9479;SDS011;4778;44.510;11.378;2023-03-03T02:59:23;25.43;;;18.23;;
9479;SDS011;4778;44.510;11.378;2023-03-03T03:01:50;22.80;;;17.67;;
9479;SDS011;4778;44.510;11.378;2023-03-03T03:04:17;25.13;;;17.58;;
9479;SDS011;4778;44.510;11.378;2023-03-03T03:06:44;26.10;;;17.45;;
9479;SDS011;4778;44.510;11.378;2023-03-03T03:09:11;26.13;;;18.10;;
9479;SDS011;4778;44.510;11.378;2023-03-03T03:11:38;23.80;;;17.15;;
9479;SDS011;4778;44.510;11.378;2023-03-03T03:14:05;23.73;;;16.65;;
9479;SDS011;4778;44.510;11.378;2023-03-03T03:16:32;23.85;;;17.42;;
9479;SDS011;4778;44.510;11.378;2023-03-03T03:18:59;23.52;;;16.40;;
9479;SDS011;4778;44.510;11.378;2023-03-03T03:21:25;23.42;;;17.13;;
9479;SDS011;4778;44.510;11.378;2023-03-03T03:23:52;22.55;;;16.60;;
9479;SDS011;4778;44.510;11.378;2023-03-03T03:26:18;22.33;;;16.55;;
9479;SDS011;4778;44.510;11.378;2023-03-03T03:28:45;22.35;;;16.42;;
9479;SDS011;4778;44.510;11.378;2023-03-03T03:31:11;22.77;;;16.20;;
9479;SDS011;4778;44.510;11.378;2023-03-03T03:33:37;24.90;;;17.40;;
9479;SDS011;4778;44.510;11.378;2023-03-03T03:36:03;22.23;;;16.58;;
9479;SDS011;4778;44.510;11.378;2023-03-03T03:38:30;23.63;;;17.10;;
9479;SDS011;4778;44.510;11.378;2023-03-03T03:40:57;22.53;;;16.07;;
9479;SDS011;4778;44.510;11.378;2023-03-03T03:43:23;21.75;;;16.38;;
9479;SDS011;4778;44.510;11.378;2023-03-03T03:45:49;20.52;;;15.85;;
9479;SDS011;4778;44.510;11.378;2023-03-03T03:48:15;21.58;;;15.77;;
9479;SDS011;4778;44.510;11.378;2023-03-03T03:50:43;23.95;;;16.02;;
9479;SDS011;4778;44.510;11.378;2023-03-03T03:53:10;24.90;;;15.75;;
9479;SDS011;4778;44.510;11.378;2023-03-03T03:55:36;22.42;;;15.98;;
9479;SDS011;4778;44.510;11.378;2023-03-03T03:58:02;20.08;;;15.40;;
9479;SDS011;4778;44.510;11.378;2023-03-03T04:00:29;22.95;;;16.10;;
9479;SDS011;4778;44.510;11.378;2023-03-03T04:02:55;21.40;;;15.47;;
9479;SDS011;4778;44.510;11.378;2023-03-03T04:05:21;19.67;;;15.00;;
9479;SDS011;4778;44.510;11.378;2023-03-03T04:07:47;21.55;;;15.07;;
9479;SDS011;4778;44.510;11.378;2023-03-03T04:10:14;22.48;;;15.10;;
9479;SDS011;4778;44.510;11.378;2023-03-03T04:12:40;20.73;;;15.67;;
9479;SDS011;4778;44.510;11.378;2023-03-03T04:15:07;20.25;;;14.63;;
9479;SDS011;4778;44.510;11.378;2023-03-03T04:17:33;21.38;;;15.30;;
9479;SDS011;4778;44.510;11.378;2023-03-03T04:19:59;21.23;;;15.10;;
9479;SDS011;4778;44.510;11.378;2023-03-03T04:22:26;21.95;;;14.93;;
9479;SDS011;4778;44.510;11.378;2023-03-03T04:24:53;20.08;;;14.88;;
9479;SDS011;4778;44.510;11.378;2023-03-03T04:27:19;19.75;;;14.38;;
9479;SDS011;4778;44.510;11.378;2023-03-03T04:29:45;19.77;;;14.38;;
9479;SDS011;4778;44.510;11.378;2023-03-03T04:32:12;20.83;;;14.77;;
9479;SDS011;4778;44.510;11.378;2023-03-03T04:34:38;21.88;;;14.75;;
9479;SDS011;4778;44.510;11.378;2023-03-03T04:37:04;19.80;;;13.85;;
9479;SDS011;4778;44.510;11.378;2023-03-03T04:39:30;19.63;;;14.43;;
9479;SDS011;4778;44.510;11.378;2023-03-03T04:41:56;19.75;;;15.07;;
9479;SDS011;4778;44.510;11.378;2023-03-03T04:44:22;19.08;;;14.60;;
9479;SDS011;4778;44.510;11.378;2023-03-03T04:46:48;20.13;;;14.52;;
9479;SDS011;4778;44.510;11.378;2023-03-03T04:49:14;20.07;;;15.20;;
9479;SDS011;4778;44.510;11.378;2023-03-03T04:51:40;20.77;;;14.23;;
9479;SDS011;4778;44.510;11.378;2023-03-03T04:54:06;22.15;;;14.32;;
9479;SDS011;4778;44.510;11.378;2023-03-03T04:56:32;20.40;;;14.65;;
9479;SDS011;4778;44.510;11.378;2023-03-03T04:58:59;20.95;;;14.10;;
9479;SDS011;4778;44.510;11.378;2023-03-03T05:01:25;20.00;;;14.20;;
9479;SDS011;4778;44.510;11.378;2023-03-03T05:03:51;21.08;;;14.13;;
9479;SDS011;4778;44.510;11.378;2023-03-03T05:06:17;19.58;;;13.65;;
9479;SDS011;4778;44.510;11.378;2023-03-03T05:08:43;20.27;;;14.77;;
9479;SDS011;4778;44.510;11.378;2023-03-03T05:11:09;18.63;;;14.27;;
9479;SDS011;4778;44.510;11.378;2023-03-03T05:13:35;21.70;;;15.48;;
9479;SDS011;4778;44.510;11.378;2023-03-03T05:16:02;21.23;;;15.25;;
9479;SDS011;4778;44.510;11.378;2023-03-03T05:18:28;22.70;;;14.77;;
9479;SDS011;4778;44.510;11.378;2023-03-03T05:20:54;21.73;;;14.35;;
9479;SDS011;4778;44.510;11.378;2023-03-03T05:23:20;22.92;;;15.30;;
9479;SDS011;4778;44.510;11.378;2023-03-03T05:25:47;20.90;;;14.38;;
9479;SDS011;4778;44.510;11.378;2023-03-03T05:28:13;20.55;;;15.18;;
9479;SDS011;4778;44.510;11.378;2023-03-03T05:30:39;26.60;;;15.93;;
9479;SDS011;4778;44.510;11.378;2023-03-03T05:33:06;22.25;;;15.15;;
9479;SDS011;4778;44.510;11.378;2023-03-03T05:35:32;19.67;;;15.20;;
9479;SDS011;4778;44.510;11.378;2023-03-03T05:37:58;20.83;;;14.90;;
9479;SDS011;4778;44.510;11.378;2023-03-03T05:40:24;22.87;;;15.37;;
9479;SDS011;4778;44.510;11.378;2023-03-03T05:42:51;22.83;;;15.70;;
9479;SDS011;4778;44.510;11.378;2023-03-03T05:45:17;21.30;;;15.32;;
9479;SDS011;4778;44.510;11.378;2023-03-03T05:47:45;23.98;;;15.10;;
9479;SDS011;4778;44.510;11.378;2023-03-03T05:50:11;23.33;;;15.80;;
9479;SDS011;4778;44.510;11.378;2023-03-03T05:52:38;24.57;;;16.73;;
9479;SDS011;4778;44.510;11.378;2023-03-03T05:55:04;22.05;;;16.00;;
9479;SDS011;4778;44.510;11.378;2023-03-03T05:57:30;21.42;;;15.60;;
9479;SDS011;4778;44.510;11.378;2023-03-03T05:59:56;22.08;;;15.68;;
9479;SDS011;4778;44.510;11.378;2023-03-03T06:02:22;22.02;;;14.70;;
9479;SDS011;4778;44.510;11.378;2023-03-03T06:04:48;21.38;;;15.82;;
9479;SDS011;4778;44.510;11.378;2023-03-03T06:07:15;23.80;;;15.70;;
9479;SDS011;4778;44.510;11.378;2023-03-03T06:09:41;19.77;;;14.73;;
9479;SDS011;4778;44.510;11.378;2023-03-03T06:12:07;22.88;;;15.25;;
9479;SDS011;4778;44.510;11.378;2023-03-03T06:14:33;22.33;;;14.70;;
9479;SDS011;4778;44.510;11.378;2023-03-03T06:16:59;20.45;;;15.65;;
9479;SDS011;4778;44.510;11.378;2023-03-03T06:19:25;22.63;;;14.35;;
9479;SDS011;4778;44.510;11.378;2023-03-03T06:21:51;22.50;;;15.02;;
9479;SDS011;4778;44.510;11.378;2023-03-03T06:24:18;20.13;;;14.68;;
9479;SDS011;4778;44.510;11.378;2023-03-03T06:26:44;19.42;;;14.45;;
9479;SDS011;4778;44.510;11.378;2023-03-03T06:29:10;20.73;;;14.07;;
9479;SDS011;4778;44.510;11.378;2023-03-03T06:31:36;20.63;;;13.75;;
9479;SDS011;4778;44.510;11.378;2023-03-03T06:34:02;22.33;;;14.20;;
9479;SDS011;4778;44.510;11.378;2023-03-03T06:36:28;19.17;;;14.35;;
9479;SDS011;4778;44.510;11.378;2023-03-03T06:38:55;19.63;;;13.35;;
9479;SDS011;4778;44.510;11.378;2023-03-03T06:41:21;19.67;;;13.87;;
9479;SDS011;4778;44.510;11.378;2023-03-03T06:43:47;19.48;;;13.32;;
9479;SDS011;4778;44.510;11.378;2023-03-03T06:46:13;19.17;;;13.63;;
9479;SDS011;4778;44.510;11.378;2023-03-03T06:48:39;18.88;;;14.00;;
9479;SDS011;4778;44.510;11.378;2023-03-03T06:51:11;18.02;;;12.73;;
9479;SDS011;4778;44.510;11.378;2023-03-03T06:53:42;21.75;;;13.85;;
9479;SDS011;4778;44.510;11.378;2023-03-03T06:56:08;20.90;;;13.85;;
9479;SDS011;4778;44.510;11.378;2023-03-03T06:58:34;19.52;;;12.82;;
9479;SDS011;4778;44.510;11.378;2023-03-03T07:01:01;19.03;;;13.20;;
9479;SDS011;4778;44.510;11.378;2023-03-03T07:03:33;19.80;;;13.55;;
9479;SDS011;4778;44.510;11.378;2023-03-03T07:06:00;20.33;;;13.60;;
9479;SDS011;4778;44.510;11.378;2023-03-03T07:08:29;20.60;;;13.40;;
9479;SDS011;4778;44.510;11.378;2023-03-03T07:10:55;17.67;;;13.73;;
9479;SDS011;4778;44.510;11.378;2023-03-03T07:13:27;20.45;;;13.68;;
9479;SDS011;4778;44.510;11.378;2023-03-03T07:15:55;19.48;;;13.00;;
9479;SDS011;4778;44.510;11.378;2023-03-03T07:21:04;18.53;;;13.37;;
9479;SDS011;4778;44.510;11.378;2023-03-03T07:23:37;17.25;;;13.23;;
9479;SDS011;4778;44.510;11.378;2023-03-03T07:26:08;19.85;;;13.60;;
9479;SDS011;4778;44.510;11.378;2023-03-03T07:28:36;19.80;;;13.98;;
9479;SDS011;4778;44.510;11.378;2023-03-03T07:31:04;19.30;;;13.02;;
9479;SDS011;4778;44.510;11.378;2023-03-03T07:33:43;18.20;;;13.18;;
9479;SDS011;4778;44.510;11.378;2023-03-03T07:36:29;18.00;;;12.70;;
9479;SDS011;4778;44.510;11.378;2023-03-03T07:38:59;19.75;;;13.95;;
9479;SDS011;4778;44.510;11.378;2023-03-03T07:41:25;18.40;;;12.35;;
9479;SDS011;4778;44.510;11.378;2023-03-03T07:48:54;18.05;;;13.77;;
9479;SDS011;4778;44.510;11.378;2023-03-03T07:51:36;16.45;;;12.50;;
9479;SDS011;4778;44.510;11.378;2023-03-03T07:56:34;18.88;;;14.02;;
9479;SDS011;4778;44.510;11.378;2023-03-03T07:59:24;17.40;;;12.68;;
9479;SDS011;4778;44.510;11.378;2023-03-03T08:01:50;19.73;;;13.77;;
9479;SDS011;4778;44.510;11.378;2023-03-03T08:04:17;18.58;;;13.38;;
9479;SDS011;4778;44.510;11.378;2023-03-03T08:11:46;21.17;;;14.30;;
9479;SDS011;4778;44.510;11.378;2023-03-03T08:14:14;23.52;;;14.60;;
9479;SDS011;4778;44.510;11.378;2023-03-03T08:16:40;21.75;;;14.63;;
9479;SDS011;4778;44.510;11.378;2023-03-03T08:19:08;19.20;;;14.53;;
9479;SDS011;4778;44.510;11.378;2023-03-03T08:21:36;21.77;;;14.23;;
9479;SDS011;4778;44.510;11.378;2023-03-03T08:24:02;20.77;;;14.97;;
9479;SDS011;4778;44.510;11.378;2023-03-03T08:26:28;20.50;;;14.45;;
9479;SDS011;4778;44.510;11.378;2023-03-03T08:28:55;19.45;;;14.48;;
9479;SDS011;4778;44.510;11.378;2023-03-03T08:31:21;20.23;;;13.98;;
9479;SDS011;4778;44.510;11.378;2023-03-03T08:33:47;19.92;;;14.55;;
9479;SDS011;4778;44.510;11.378;2023-03-03T08:36:13;22.23;;;14.60;;
9479;SDS011;4778;44.510;11.378;2023-03-03T08:38:39;17.63;;;13.88;;
9479;SDS011;4778;44.510;11.378;2023-03-03T08:41:06;18.58;;;14.43;;
9479;SDS011;4778;44.510;11.378;2023-03-03T08:43:32;19.95;;;15.05;;
9479;SDS011;4778;44.510;11.378;2023-03-03T08:46:00;22.75;;;15.05;;
9479;SDS011;4778;44.510;11.378;2023-03-03T08:48:27;19.33;;;14.43;;
9479;SDS011;4778;44.510;11.378;2023-03-03T08:50:53;21.57;;;14.73;;
9479;SDS011;4778;44.510;11.378;2023-03-03T08:53:20;18.55;;;14.48;;
9479;SDS011;4778;44.510;11.378;2023-03-03T08:55:46;21.33;;;15.00;;
9479;SDS011;4778;44.510;11.378;2023-03-03T08:58:12;21.38;;;14.38;;
9479;SDS011;4778;44.510;11.378;2023-03-03T09:00:39;19.08;;;15.10;;
9479;SDS011;4778;44.510;11.378;2023-03-03T09:03:05;19.55;;;14.95;;
9479;SDS011;4778;44.510;11.378;2023-03-03T09:05:32;20.85;;;15.48;;
9479;SDS011;4778;44.510;11.378;2023-03-03T09:07:58;21.27;;;14.90;;
9479;SDS011;4778;44.510;11.378;2023-03-03T09:10:25;19.20;;;14.60;;
9479;SDS011;4778;44.510;11.378;2023-03-03T09:12:55;18.85;;;14.88;;
9479;SDS011;4778;44.510;11.378;2023-03-03T09:15:29;22.65;;;16.08;;
9479;SDS011;4778;44.510;11.378;2023-03-03T09:18:38;23.43;;;16.00;;
9479;SDS011;4778;44.510;11.378;2023-03-03T09:25:51;22.58;;;17.15;;
9479;SDS011;4778;44.510;11.378;2023-03-03T09:28:25;23.30;;;17.10;;
9479;SDS011;4778;44.510;11.378;2023-03-03T09:30:52;26.42;;;18.35;;
9479;SDS011;4778;44.510;11.378;2023-03-03T09:33:19;25.67;;;18.40;;
9479;SDS011;4778;44.510;11.378;2023-03-03T09:35:46;26.25;;;18.63;;
9479;SDS011;4778;44.510;11.378;2023-03-03T09:38:20;27.10;;;18.73;;
9479;SDS011;4778;44.510;11.378;2023-03-03T09:51:35;29.58;;;21.13;;
9479;SDS011;4778;44.510;11.378;2023-03-03T09:56:36;26.17;;;19.33;;
9479;SDS011;4778;44.510;11.378;2023-03-03T10:04:19;27.60;;;21.07;;
9479;SDS011;4778;44.510;11.378;2023-03-03T10:14:43;30.13;;;22.13;;
9479;SDS011;4778;44.510;11.378;2023-03-03T10:19:45;32.60;;;23.23;;
9479;SDS011;4778;44.510;11.378;2023-03-03T11:04:06;22.83;;;16.63;;
9479;SDS011;4778;44.510;11.378;2023-03-03T11:06:45;19.08;;;14.05;;
9479;SDS011;4778;44.510;11.378;2023-03-03T11:11:44;24.08;;;18.05;;
9479;SDS011;4778;44.510;11.378;2023-03-03T11:16:59;18.87;;;13.90;;
9479;SDS011;4778;44.510;11.378;2023-03-03T11:27:16;14.55;;;11.75;;
9479;SDS011;4778;44.510;11.378;2023-03-03T11:32:43;14.82;;;11.68;;
9479;SDS011;4778;44.510;11.378;2023-03-03T11:40:26;16.75;;;11.93;;
9479;SDS011;4778;44.510;11.378;2023-03-03T11:45:21;14.68;;;11.70;;
9479;SDS011;4778;44.510;11.378;2023-03-03T11:48:13;17.27;;;11.50;;
9479;SDS011;4778;44.510;11.378;2023-03-03T11:50:43;15.82;;;12.32;;
9479;SDS011;4778;44.510;11.378;2023-03-03T11:55:44;16.27;;;11.40;;
9479;SDS011;4778;44.510;11.378;2023-03-03T12:03:39;16.77;;;12.48;;
9479;SDS011;4778;44.510;11.378;2023-03-03T12:08:38;15.98;;;11.63;;
9479;SDS011;4778;44.510;11.378;2023-03-03T12:11:10;16.05;;;12.85;;
9479;SDS011;4778;44.510;11.378;2023-03-03T12:24:45;17.87;;;12.43;;
9479;SDS011;4778;44.510;11.378;2023-03-03T12:32:26;16.88;;;12.25;;
9479;SDS011;4778;44.510;11.378;2023-03-03T12:35:04;18.43;;;12.90;;
9479;SDS011;4778;44.510;11.378;2023-03-03T12:40:07;15.00;;;10.82;;
9479;SDS011;4778;44.510;11.378;2023-03-03T12:42:40;13.88;;;10.75;;
9479;SDS011;4778;44.510;11.378;2023-03-03T12:48:00;14.27;;;11.13;;
9479;SDS011;4778;44.510;11.378;2023-03-03T13:08:46;14.05;;;10.73;;
9479;SDS011;4778;44.510;11.378;2023-03-03T13:11:21;13.52;;;11.43;;
9479;SDS011;4778;44.510;11.378;2023-03-03T13:13:53;16.57;;;10.90;;
9479;SDS011;4778;44.510;11.378;2023-03-03T13:16:26;13.32;;;10.82;;
9479;SDS011;4778;44.510;11.378;2023-03-03T13:18:55;14.55;;;10.98;;
9479;SDS011;4778;44.510;11.378;2023-03-03T13:21:24;13.00;;;9.82;;
9479;SDS011;4778;44.510;11.378;2023-03-03T13:23:54;11.73;;;9.50;;
9479;SDS011;4778;44.510;11.378;2023-03-03T13:31:38;12.40;;;9.43;;
9479;SDS011;4778;44.510;11.378;2023-03-03T13:34:06;11.73;;;9.60;;
9479;SDS011;4778;44.510;11.378;2023-03-03T13:36:34;12.70;;;10.18;;
9479;SDS011;4778;44.510;11.378;2023-03-03T13:39:16;12.63;;;8.88;;
9479;SDS011;4778;44.510;11.378;2023-03-03T13:41:48;12.30;;;9.30;;
9479;SDS011;4778;44.510;11.378;2023-03-03T13:44:26;13.48;;;9.10;;
9479;SDS011;4778;44.510;11.378;2023-03-03T13:52:36;11.87;;;8.03;;
9479;SDS011;4778;44.510;11.378;2023-03-03T14:00:20;10.77;;;8.20;;
9479;SDS011;4778;44.510;11.378;2023-03-03T14:05:36;10.32;;;7.65;;
9479;SDS011;4778;44.510;11.378;2023-03-03T14:13:11;12.35;;;8.52;;
9479;SDS011;4778;44.510;11.378;2023-03-03T14:15:43;10.07;;;8.02;;
9479;SDS011;4778;44.510;11.378;2023-03-03T14:18:16;13.20;;;9.35;;
9479;SDS011;4778;44.510;11.378;2023-03-03T14:20:46;11.23;;;8.40;;
9479;SDS011;4778;44.510;11.378;2023-03-03T14:23:15;10.65;;;8.57;;
9479;SDS011;4778;44.510;11.378;2023-03-03T14:25:51;11.70;;;8.88;;
9479;SDS011;4778;44.510;11.378;2023-03-03T14:28:18;11.25;;;8.35;;
9479;SDS011;4778;44.510;11.378;2023-03-03T14:30:45;13.32;;;9.20;;
9479;SDS011;4778;44.510;11.378;2023-03-03T14:35:47;10.52;;;8.32;;
9479;SDS011;4778;44.510;11.378;2023-03-03T14:48:51;9.88;;;8.20;;
9479;SDS011;4778;44.510;11.378;2023-03-03T14:53:44;14.05;;;8.38;;
9479;SDS011;4778;44.510;11.378;2023-03-03T14:58:49;11.65;;;8.20;;
9479;SDS011;4778;44.510;11.378;2023-03-03T15:03:48;12.48;;;8.77;;
9479;SDS011;4778;44.510;11.378;2023-03-03T15:06:27;10.70;;;7.68;;
9479;SDS011;4778;44.510;11.378;2023-03-03T15:08:53;12.05;;;8.15;;
9479;SDS011;4778;44.510;11.378;2023-03-03T15:11:26;12.45;;;8.20;;
9479;SDS011;4778;44.510;11.378;2023-03-03T15:13:52;10.85;;;7.35;;
9479;SDS011;4778;44.510;11.378;2023-03-03T15:16:31;9.65;;;7.82;;
9479;SDS011;4778;44.510;11.378;2023-03-03T15:24:41;11.07;;;8.02;;
9479;SDS011;4778;44.510;11.378;2023-03-03T15:27:14;10.88;;;7.80;;
9479;SDS011;4778;44.510;11.378;2023-03-03T15:32:22;10.15;;;7.55;;
9479;SDS011;4778;44.510;11.378;2023-03-03T15:35:02;15.05;;;8.27;;
9479;SDS011;4778;44.510;11.378;2023-03-03T15:39:58;11.00;;;8.25;;
9479;SDS011;4778;44.510;11.378;2023-03-03T15:42:32;9.80;;;7.93;;
9479;SDS011;4778;44.510;11.378;2023-03-03T15:52:50;10.35;;;8.15;;
9479;SDS011;4778;44.510;11.378;2023-03-03T16:02:51;11.05;;;7.70;;
9479;SDS011;4778;44.510;11.378;2023-03-03T16:05:21;9.93;;;6.85;;
9479;SDS011;4778;44.510;11.378;2023-03-03T16:10:17;9.63;;;7.43;;
9479;SDS011;4778;44.510;11.378;2023-03-03T16:23:13;10.45;;;7.63;;
9479;SDS011;4778;44.510;11.378;2023-03-03T16:25:46;9.68;;;7.78;;
9479;SDS011;4778;44.510;11.378;2023-03-03T16:41:05;9.85;;;7.85;;
9479;SDS011;4778;44.510;11.378;2023-03-03T16:46:02;10.05;;;7.07;;
9479;SDS011;4778;44.510;11.378;2023-03-03T16:48:52;9.05;;;6.97;;
9479;SDS011;4778;44.510;11.378;2023-03-03T16:54:08;9.43;;;6.45;;
9479;SDS011;4778;44.510;11.378;2023-03-03T16:56:43;9.03;;;5.90;;
9479;SDS011;4778;44.510;11.378;2023-03-03T16:59:28;9.18;;;6.28;;
9479;SDS011;4778;44.510;11.378;2023-03-03T17:04:38;7.38;;;6.13;;
9479;SDS011;4778;44.510;11.378;2023-03-03T17:12:24;8.80;;;5.85;;
9479;SDS011;4778;44.510;11.378;2023-03-03T17:14:58;7.77;;;5.67;;
9479;SDS011;4778;44.510;11.378;2023-03-03T17:17:40;9.37;;;6.20;;
9479;SDS011;4778;44.510;11.378;2023-03-03T17:20:22;8.88;;;6.38;;
9479;SDS011;4778;44.510;11.378;2023-03-03T17:23:14;8.32;;;6.00;;
9479;SDS011;4778;44.510;11.378;2023-03-03T17:25:49;12.60;;;6.70;;
9479;SDS011;4778;44.510;11.378;2023-03-03T17:30:47;9.48;;;6.18;;
9479;SDS011;4778;44.510;11.378;2023-03-03T17:36:00;8.68;;;5.88;;
9479;SDS011;4778;44.510;11.378;2023-03-03T17:38:33;7.72;;;6.35;;
9479;SDS011;4778;44.510;11.378;2023-03-03T17:43:39;9.50;;;6.30;;
9479;SDS011;4778;44.510;11.378;2023-03-03T17:46:13;12.25;;;6.35;;
9479;SDS011;4778;44.510;11.378;2023-03-03T17:48:57;8.65;;;5.78;;
9479;SDS011;4778;44.510;11.378;2023-03-03T17:54:29;9.10;;;5.40;;
9479;SDS011;4778;44.510;11.378;2023-03-03T18:05:09;9.48;;;5.35;;
9479;SDS011;4778;44.510;11.378;2023-03-03T18:07:44;10.65;;;5.82;;
9479;SDS011;4778;44.510;11.378;2023-03-03T18:12:58;9.00;;;5.55;;
9479;SDS011;4778;44.510;11.378;2023-03-03T18:23:31;8.80;;;6.05;;
9479;SDS011;4778;44.510;11.378;2023-03-03T18:26:03;12.52;;;5.80;;
9479;SDS011;4778;44.510;11.378;2023-03-03T18:28:48;9.85;;;5.80;;
9479;SDS011;4778;44.510;11.378;2023-03-03T18:31:20;13.10;;;6.53;;
9479;SDS011;4778;44.510;11.378;2023-03-03T18:38:55;10.75;;;6.10;;
9479;SDS011;4778;44.510;11.378;2023-03-03T18:41:22;10.73;;;5.78;;
9479;SDS011;4778;44.510;11.378;2023-03-03T18:49:05;9.17;;;5.90;;
9479;SDS011;4778;44.510;11.378;2023-03-03T18:57:19;8.05;;;5.90;;
9479;SDS011;4778;44.510;11.378;2023-03-03T19:04:47;10.23;;;5.20;;
9479;SDS011;4778;44.510;11.378;2023-03-03T19:07:18;9.02;;;5.80;;
9479;SDS011;4778;44.510;11.378;2023-03-03T19:09:52;9.35;;;5.80;;
9479;SDS011;4778;44.510;11.378;2023-03-03T19:15:44;9.50;;;5.93;;
9479;SDS011;4778;44.510;11.378;2023-03-03T19:20:49;10.37;;;5.87;;
9479;SDS011;4778;44.510;11.378;2023-03-03T19:23:28;11.75;;;6.30;;
9479;SDS011;4778;44.510;11.378;2023-03-03T19:28:44;11.80;;;6.77;;
9479;SDS011;4778;44.510;11.378;2023-03-03T19:31:20;11.82;;;7.70;;
9479;SDS011;4778;44.510;11.378;2023-03-03T19:33:56;14.10;;;6.95;;
9479;SDS011;4778;44.510;11.378;2023-03-03T19:47:05;10.88;;;6.93;;
9479;SDS011;4778;44.510;11.378;2023-03-03T19:52:37;12.70;;;7.13;;
9479;SDS011;4778;44.510;11.378;2023-03-03T19:55:23;19.87;;;8.00;;
9479;SDS011;4778;44.510;11.378;2023-03-03T20:08:40;11.07;;;7.10;;
9479;SDS011;4778;44.510;11.378;2023-03-03T20:13:47;12.35;;;8.05;;
9479;SDS011;4778;44.510;11.378;2023-03-03T20:16:36;16.17;;;10.40;;
9479;SDS011;4778;44.510;11.378;2023-03-03T20:19:23;17.63;;;10.55;;
9479;SDS011;4778;44.510;11.378;2023-03-03T20:25:12;29.35;;;16.30;;
9479;SDS011;4778;44.510;11.378;2023-03-03T20:35:00;14.75;;;7.60;;
9479;SDS011;4778;44.510;11.378;2023-03-03T20:40:01;33.63;;;17.67;;
9479;SDS011;4778;44.510;11.378;2023-03-03T20:42:35;33.13;;;16.92;;
9479;SDS011;4778;44.510;11.378;2023-03-03T20:50:14;16.23;;;9.55;;
9479;SDS011;4778;44.510;11.378;2023-03-03T20:52:55;12.23;;;8.77;;
9479;SDS011;4778;44.510;11.378;2023-03-03T20:58:14;17.53;;;8.80;;
9479;SDS011;4778;44.510;11.378;2023-03-03T21:01:05;12.90;;;8.65;;
9479;SDS011;4778;44.510;11.378;2023-03-03T21:03:34;13.68;;;9.32;;
9479;SDS011;4778;44.510;11.378;2023-03-03T21:06:05;13.70;;;9.05;;
9479;SDS011;4778;44.510;11.378;2023-03-03T21:08:46;15.70;;;9.18;;
9479;SDS011;4778;44.510;11.378;2023-03-03T21:11:14;22.73;;;10.47;;
9479;SDS011;4778;44.510;11.378;2023-03-03T21:13:41;18.23;;;10.43;;
9479;SDS011;4778;44.510;11.378;2023-03-03T21:16:10;16.90;;;9.70;;
9479;SDS011;4778;44.510;11.378;2023-03-03T21:18:36;16.02;;;9.63;;
9479;SDS011;4778;44.510;11.378;2023-03-03T21:21:03;13.88;;;8.85;;
9479;SDS011;4778;44.510;11.378;2023-03-03T21:23:29;17.63;;;10.23;;